Time;durP1;ratioP1;P1;durP2;ratioP2;P2;SDS_P1;SDS_P2;PMS_P1;PMS_P2;Temp;Humidity;BMP_temperature;BMP_pressure;BME280_temperature;BME280_humidity;BME280_pressure;Samples;Min_cycle;Max_cycle;Signal;HPM_P1;HPM_P2
2023/01/12 00:02:14;;;;;;;0.63;0.57;;;7.50;99.90;;;;;;5097807;28;20044;-84
2023/01/12 00:04:39;;;;;;;1.75;0.73;;;7.50;99.90;;;;;;5097100;28;20036;-84
2023/01/12 00:07:10;;;;;;;0.00;0.00;;;8.00;99.90;;;;;;5097396;28;20123;-84
2023/01/12 00:09:36;;;;;;;0.00;0.00;;;7.50;99.90;;;;;;5098230;28;20071;-84
2023/01/12 00:12:08;;;;;;;1.25;0.40;;;7.40;99.90;;;;;;5099288;28;20092;-84
2023/01/12 00:14:35;;;;;;;1.90;1.35;;;7.50;99.90;;;;;;5097938;28;20129;-84
2023/01/12 00:17:01;;;;;;;0.68;0.25;;;7.50;99.90;;;;;;5098211;28;20040;-84
2023/01/12 00:19:27;;;;;;;0.43;0.43;;;7.60;99.90;;;;;;5099047;28;20461;-84
2023/01/12 00:21:56;;;;;;;0.00;0.00;;;7.60;99.90;;;;;;5104093;28;20036;-83
2023/01/12 00:24:24;;;;;;;5.82;0.55;;;7.60;99.90;;;;;;5108179;28;20040;-83
2023/01/12 00:26:50;;;;;;;1.52;0.82;;;7.70;99.90;;;;;;5104218;28;20087;-84
2023/01/12 00:29:16;;;;;;;2.40;1.00;;;7.70;99.90;;;;;;5102028;28;20043;-84
2023/01/12 00:31:42;;;;;;;1.25;0.63;;;7.80;99.90;;;;;;5102272;28;20040;-84
2023/01/12 00:34:08;;;;;;;0.00;0.00;;;7.90;99.90;;;;;;5102339;28;20097;-84
2023/01/12 00:36:34;;;;;;;1.02;0.75;;;7.90;99.90;;;;;;5101541;28;20036;-84
2023/01/12 00:38:59;;;;;;;1.13;0.65;;;7.80;99.90;;;;;;5101833;28;20044;-84
2023/01/12 00:46:53;;;;;;;0.17;0.17;;;7.60;99.90;;;;;;5102383;28;20105;-84
2023/01/12 00:49:19;;;;;;;0.85;0.73;;;7.50;99.90;;;;;;5101411;28;20052;-84
2023/01/12 00:51:45;;;;;;;0.90;0.90;;;8.30;99.90;;;;;;5102024;28;20059;-83
2023/01/12 00:54:10;;;;;;;0.17;0.17;;;7.50;99.90;;;;;;5101577;28;20042;-83
2023/01/12 00:56:37;;;;;;;1.15;0.60;;;7.60;99.90;;;;;;5101818;28;20061;-84
2023/01/12 00:59:04;;;;;;;0.47;0.45;;;7.70;99.90;;;;;;5101426;28;20051;-85
2023/01/12 01:01:30;;;;;;;0.38;0.35;;;7.80;99.90;;;;;;5100959;28;20384;-84
2023/01/12 01:03:55;;;;;;;0.52;0.52;;;7.80;99.90;;;;;;5101012;28;20047;-84
2023/01/12 01:06:21;;;;;;;0.90;0.88;;;7.70;99.90;;;;;;5102910;28;20040;-85
2023/01/12 01:08:47;;;;;;;0.00;0.00;;;7.50;99.90;;;;;;5105560;28;20043;-84
2023/01/12 01:11:14;;;;;;;6.07;1.35;;;7.30;99.90;;;;;;5105433;28;20032;-83
2023/01/12 01:13:42;;;;;;;0.00;0.00;;;7.30;99.90;;;;;;5105656;28;20036;-83
2023/01/12 01:16:09;;;;;;;0.75;0.75;;;7.30;99.90;;;;;;5105872;28;20560;-82
2023/01/12 01:18:36;;;;;;;1.10;0.70;;;7.30;99.90;;;;;;5106234;28;20036;-83
2023/01/12 01:21:03;;;;;;;1.35;1.05;;;7.20;99.90;;;;;;5105914;28;20448;-83
2023/01/12 01:23:32;;;;;;;0.00;0.00;;;7.20;99.90;;;;;;5105736;28;20043;-82
2023/01/12 01:26:03;;;;;;;6.97;2.83;;;7.20;99.90;;;;;;5105774;28;20047;-83
2023/01/12 01:28:28;;;;;;;0.00;0.00;;;7.40;99.90;;;;;;5105684;28;20069;-83
2023/01/12 01:31:05;;;;;;;0.55;0.55;;;7.40;99.90;;;;;;5105134;28;20097;-83
2023/01/12 01:33:31;;;;;;;0.10;0.10;;;7.50;99.90;;;;;;5104934;28;20040;-83
2023/01/12 01:35:56;;;;;;;5.40;0.82;;;7.50;99.90;;;;;;5105013;28;20037;-82
2023/01/12 01:38:22;;;;;;;0.10;0.10;;;7.60;99.90;;;;;;5105387;28;20040;-83
2023/01/12 01:40:48;;;;;;;1.30;1.20;;;7.50;99.90;;;;;;5106032;28;20104;-83
2023/01/12 01:43:15;;;;;;;1.20;1.00;;;7.50;99.90;;;;;;5105860;28;20040;-83
2023/01/12 01:45:44;;;;;;;0.43;0.30;;;7.60;99.90;;;;;;5105010;28;20075;-82
2023/01/12 01:48:13;;;;;;;0.82;0.68;;;7.50;99.90;;;;;;5105955;28;20055;-83
2023/01/12 01:50:45;;;;;;;15.88;2.08;;;7.60;99.90;;;;;;5105099;28;20070;-83
2023/01/12 01:53:15;;;;;;;5.63;2.05;;;7.70;99.90;;;;;;5104046;28;20487;-83
2023/01/12 01:55:57;;;;;;;0.43;0.32;;;7.80;99.90;;;;;;5102224;28;20036;-84
2023/01/12 01:58:34;;;;;;;15.45;2.05;;;7.70;99.90;;;;;;5100775;28;20039;-84
2023/01/12 02:01:00;;;;;;;0.00;0.00;;;7.70;99.90;;;;;;5101871;28;20040;-83
2023/01/12 02:03:27;;;;;;;0.55;0.55;;;7.60;99.90;;;;;;5103380;28;20100;-83
2023/01/12 02:05:55;;;;;;;2.60;1.25;;;7.60;99.90;;;;;;5104025;28;20087;-83
2023/01/12 02:08:53;;;;;;;1.25;0.22;;;7.70;99.90;;;;;;5104574;28;20094;-83
2023/01/12 02:17:09;;;;;;;0.20;0.20;;;7.90;99.90;;;;;;5104673;28;20429;-83
2023/01/12 02:19:59;;;;;;;0.00;0.00;;;7.70;99.90;;;;;;5084767;28;20044;-83
2023/01/12 02:22:39;;;;;;;0.80;0.75;;;7.80;99.90;;;;;;5084271;28;20044;-82
2023/01/12 02:25:20;;;;;;;0.45;0.45;;;7.90;99.90;;;;;;5093866;28;20463;-83
2023/01/12 02:28:24;;;;;;;0.10;0.10;;;7.90;99.90;;;;;;5103927;28;20066;-83
2023/01/12 02:31:22;;;;;;;0.00;0.00;;;7.90;99.90;;;;;;5104327;28;20448;-83
2023/01/12 02:34:05;;;;;;;0.25;0.13;;;7.90;99.90;;;;;;5102617;28;20185;-83
2023/01/12 02:36:50;;;;;;;2.13;1.55;;;8.00;99.90;;;;;;5103304;28;20055;-83
2023/01/12 02:39:28;;;;;;;0.10;0.10;;;8.00;99.90;;;;;;5103694;28;20055;-83
2023/01/12 02:45:05;;;;;;;1.98;0.80;;;8.00;99.90;;;;;;5099885;28;20519;-84
2023/01/12 02:47:59;;;;;;;0.20;0.20;;;7.90;99.90;;;;;;5098733;28;20416;-84
2023/01/12 02:50:33;;;;;;;0.17;0.17;;;7.90;99.90;;;;;;5100038;28;20048;-83
2023/01/12 02:53:05;;;;;;;0.13;0.13;;;8.00;99.90;;;;;;5100948;28;20104;-83
2023/01/12 02:55:31;;;;;;;4.10;1.45;;;8.00;99.90;;;;;;5101183;28;20036;-83
2023/01/12 02:57:59;;;;;;;0.25;0.25;;;7.90;99.90;;;;;;5100811;28;20044;-83
2023/01/12 03:00:25;;;;;;;0.00;0.00;;;7.90;99.90;;;;;;5101738;28;20055;-83
2023/01/12 03:02:51;;;;;;;0.00;0.00;;;8.00;99.90;;;;;;5102651;28;20708;-83
2023/01/12 03:05:16;;;;;;;1.48;1.30;;;8.00;99.90;;;;;;5102733;28;20036;-82
2023/01/12 03:07:53;;;;;;;0.35;0.35;;;8.00;99.90;;;;;;5102184;28;20046;-83
2023/01/12 03:10:41;;;;;;;1.45;0.88;;;8.00;99.90;;;;;;5102182;28;20036;-83
2023/01/12 03:13:12;;;;;;;2.38;1.10;;;8.00;99.90;;;;;;5101201;28;20055;-83
2023/01/12 03:15:43;;;;;;;3.92;0.28;;;8.00;99.90;;;;;;5101428;28;20161;-83
2023/01/12 03:18:34;;;;;;;0.10;0.10;;;8.00;99.90;;;;;;5100625;28;20391;-84
2023/01/12 03:21:09;;;;;;;0.00;0.00;;;8.10;99.90;;;;;;5097952;28;20055;-83
2023/01/12 03:23:51;;;;;;;0.00;0.00;;;8.10;99.90;;;;;;5096577;28;20502;-83
2023/01/12 03:26:22;;;;;;;0.35;0.35;;;8.10;99.90;;;;;;5088831;28;20400;-84
2023/01/12 03:28:52;;;;;;;0.20;0.20;;;8.20;99.90;;;;;;5077145;28;20102;-85
2023/01/12 03:31:19;;;;;;;0.95;0.80;;;8.20;99.90;;;;;;5076515;28;20059;-85
2023/01/12 03:33:45;;;;;;;0.20;0.17;;;8.50;99.90;;;;;;5076177;28;20041;-84
2023/01/12 03:36:32;;;;;;;0.32;0.10;;;8.20;99.90;;;;;;5084766;28;20040;-85
2023/01/12 03:39:16;;;;;;;;;;;8.20;99.90;;;;;;5077199;28;20052;-85
2023/01/12 03:41:50;;;;;;;0.10;0.03;;;8.20;99.90;;;;;;5077562;28;19920;-84
2023/01/12 03:44:39;;;;;;;1.80;1.10;;;8.30;99.90;;;;;;5092744;28;20052;-84
2023/01/12 03:47:14;;;;;;;0.35;0.35;;;8.30;99.90;;;;;;5097620;28;20062;-85
2023/01/12 03:49:53;;;;;;;0.20;0.20;;;8.40;99.90;;;;;;5097968;28;20114;-83
2023/01/12 03:52:21;;;;;;;0.00;0.00;;;8.40;99.90;;;;;;5098025;28;20084;-84
2023/01/12 03:54:48;;;;;;;0.60;0.47;;;8.50;99.90;;;;;;5098164;28;20125;-83
2023/01/12 03:57:15;;;;;;;0.52;0.32;;;8.40;99.90;;;;;;5097942;28;20410;-84
2023/01/12 03:59:41;;;;;;;0.65;0.45;;;8.40;99.90;;;;;;5101585;28;20525;-86
2023/01/12 04:02:07;;;;;;;0.00;0.00;;;8.40;99.90;;;;;;5103237;28;20044;-84
2023/01/12 04:04:33;;;;;;;0.03;0.03;;;8.40;99.90;;;;;;5102327;28;20040;-84
2023/01/12 04:06:59;;;;;;;0.00;0.00;;;8.40;99.90;;;;;;5101757;28;20040;-85
2023/01/12 04:09:24;;;;;;;1.13;0.45;;;8.40;99.90;;;;;;5101876;28;20415;-84
2023/01/12 04:14:35;;;;;;;0.32;0.32;;;8.40;99.90;;;;;;5102157;28;20414;-85
2023/01/12 04:17:01;;;;;;;0.10;0.10;;;8.40;99.90;;;;;;5101919;28;20040;-84
2023/01/12 04:19:26;;;;;;;0.47;0.47;;;8.40;99.90;;;;;;5101534;28;20130;-84
2023/01/12 04:24:36;;;;;;;0.43;0.43;;;8.40;99.90;;;;;;5103201;28;20113;-85
2023/01/12 04:27:02;;;;;;;0.00;0.00;;;8.40;99.90;;;;;;5103409;28;20036;-84
2023/01/12 04:29:28;;;;;;;0.00;0.00;;;8.30;99.90;;;;;;5103144;28;20452;-85
2023/01/12 04:31:53;;;;;;;0.00;0.00;;;8.30;99.90;;;;;;5103495;28;20044;-84
2023/01/12 04:34:19;;;;;;;0.00;0.00;;;8.30;99.90;;;;;;5102277;28;20474;-84
2023/01/12 04:36:44;;;;;;;0.00;0.00;;;8.30;99.90;;;;;;5102275;28;20032;-84
2023/01/12 04:39:10;;;;;;;6.75;0.32;;;8.30;99.90;;;;;;5101780;28;20093;-84
2023/01/12 04:41:36;;;;;;;1.25;0.85;;;8.40;99.90;;;;;;5101586;28;20042;-85
2023/01/12 04:44:01;;;;;;;0.00;0.00;;;8.40;99.90;;;;;;5102509;28;20097;-85
2023/01/12 04:46:27;;;;;;;2.15;0.52;;;8.40;99.90;;;;;;5102197;28;20032;-85
2023/01/12 04:48:52;;;;;;;1.27;1.15;;;8.40;99.90;;;;;;5101599;28;20044;-84
2023/01/12 04:51:18;;;;;;;0.00;0.00;;;8.40;99.90;;;;;;5102087;28;20509;-85
2023/01/12 04:53:43;;;;;;;0.10;0.10;;;8.40;99.90;;;;;;5101806;28;20056;-85
2023/01/12 04:56:09;;;;;;;0.00;0.00;;;8.30;99.90;;;;;;5101811;28;20044;-86
2023/01/12 04:58:35;;;;;;;0.00;0.00;;;8.30;99.90;;;;;;5101850;28;20043;-85
2023/01/12 05:01:09;;;;;;;0.00;0.00;;;8.30;99.90;;;;;;5100346;28;20131;-86
2023/01/12 05:03:35;;;;;;;0.00;0.00;;;8.30;99.90;;;;;;5101874;28;20051;-86
2023/01/12 05:06:01;;;;;;;9.43;0.52;;;8.20;99.90;;;;;;5100880;28;20044;-85
2023/01/12 05:11:11;;;;;;;0.00;0.00;;;8.20;99.90;;;;;;5098034;28;20040;-85
2023/01/12 05:13:37;;;;;;;0.90;0.85;;;8.20;99.90;;;;;;5098469;28;20036;-85
2023/01/12 05:16:14;;;;;;;0.00;0.00;;;8.20;99.90;;;;;;5098220;28;20032;-85
2023/01/12 05:18:44;;;;;;;0.00;0.00;;;8.20;99.90;;;;;;5079441;28;20045;-85
2023/01/12 05:21:11;;;;;;;0.00;0.00;;;8.20;99.90;;;;;;5097963;28;20040;-85
2023/01/12 05:23:37;;;;;;;0.03;0.03;;;8.50;99.90;;;;;;5097238;28;20036;-87
2023/01/12 05:26:04;;;;;;;0.63;0.63;;;8.20;99.90;;;;;;5097957;28;20105;-86
2023/01/12 05:28:30;;;;;;;2.05;1.00;;;8.20;99.90;;;;;;5097474;28;20051;-87
2023/01/12 05:31:05;;;;;;;0.17;0.10;;;8.20;99.90;;;;;;5097904;28;20036;-86
2023/01/12 05:33:31;;;;;;;0.00;0.00;;;8.10;99.90;;;;;;5097403;28;20044;-86
2023/01/12 05:35:57;;;;;;;0.00;0.00;;;8.10;99.90;;;;;;5097648;28;20037;-86
2023/01/12 05:38:23;;;;;;;0.00;0.00;;;8.10;99.90;;;;;;5097346;28;20040;-85
2023/01/12 05:40:48;;;;;;;0.00;0.00;;;8.10;99.90;;;;;;5096653;28;20051;-86
2023/01/12 05:46:03;;;;;;;0.00;0.00;;;8.10;99.90;;;;;;5097359;28;20055;-86
2023/01/12 05:48:29;;;;;;;0.00;0.00;;;8.10;99.90;;;;;;5096894;28;20165;-86
2023/01/12 05:51:01;;;;;;;0.00;0.00;;;8.10;99.90;;;;;;5097402;28;20101;-86
2023/01/12 05:53:28;;;;;;;0.00;0.00;;;8.10;99.90;;;;;;5093881;28;20402;-87
2023/01/12 05:55:54;;;;;;;0.00;0.00;;;8.00;99.90;;;;;;5094256;28;20141;-86
2023/01/12 05:58:19;;;;;;;0.15;0.10;;;8.10;99.90;;;;;;5094648;28;20551;-87
2023/01/12 06:00:45;;;;;;;0.82;0.65;;;8.10;99.90;;;;;;5094868;28;20044;-86
2023/01/12 06:03:11;;;;;;;0.00;0.00;;;8.10;99.90;;;;;;5095407;28;20411;-87
2023/01/12 06:05:36;;;;;;;0.00;0.00;;;8.20;99.90;;;;;;5095206;28;20574;-86
2023/01/12 06:08:02;;;;;;;0.00;0.00;;;8.10;99.90;;;;;;5093046;28;20052;-87
2023/01/12 06:10:28;;;;;;;1.50;0.57;;;8.50;99.90;;;;;;5095769;28;20047;-87
2023/01/12 06:15:38;;;;;;;0.00;0.00;;;8.10;99.90;;;;;;5097442;28;20052;-84
2023/01/12 06:18:03;;;;;;;0.00;0.00;;;8.10;99.90;;;;;;5097891;28;20036;-84
2023/01/12 06:20:29;;;;;;;0.20;0.20;;;8.30;99.90;;;;;;5098316;28;20048;-84
2023/01/12 06:22:58;;;;;;;0.00;0.00;;;8.20;99.90;;;;;;5098428;28;20043;-85
2023/01/12 06:25:24;;;;;;;0.00;0.00;;;8.30;99.90;;;;;;5100207;28;20100;-85
2023/01/12 06:27:49;;;;;;;0.00;0.00;;;8.30;99.90;;;;;;5099688;28;20102;-84
2023/01/12 06:30:15;;;;;;;0.00;0.00;;;8.40;99.90;;;;;;5101115;28;20076;-84
2023/01/12 06:32:40;;;;;;;0.00;0.00;;;8.40;99.90;;;;;;5100442;28;20102;-86
2023/01/12 06:35:06;;;;;;;0.00;0.00;;;8.40;99.90;;;;;;5093548;28;20046;-85
2023/01/12 06:37:32;;;;;;;0.00;0.00;;;8.40;99.90;;;;;;5101321;28;20040;-85
2023/01/12 06:39:58;;;;;;;2.15;0.50;;;8.40;99.90;;;;;;5100128;28;20075;-85
2023/01/12 06:42:30;;;;;;;0.00;0.00;;;8.50;99.90;;;;;;5099260;28;20094;-85
2023/01/12 06:44:57;;;;;;;0.03;0.03;;;8.50;99.90;;;;;;5099057;28;20127;-84
2023/01/12 06:47:23;;;;;;;0.00;0.00;;;8.50;99.90;;;;;;5098828;28;20036;-85
2023/01/12 06:49:50;;;;;;;0.00;0.00;;;8.60;99.90;;;;;;5094703;28;20060;-85
2023/01/12 06:52:20;;;;;;;0.10;0.10;;;8.70;99.90;;;;;;5093879;28;20044;-85
2023/01/12 06:54:47;;;;;;;3.10;0.20;;;8.70;99.90;;;;;;5092022;28;20173;-85
2023/01/12 06:57:13;;;;;;;0.00;0.00;;;8.70;99.90;;;;;;5090949;28;20051;-85
2023/01/12 06:59:40;;;;;;;0.00;0.00;;;8.70;99.90;;;;;;5091064;28;20078;-85
2023/01/12 07:02:12;;;;;;;0.00;0.00;;;8.80;99.90;;;;;;5090806;28;20048;-85
2023/01/12 07:04:39;;;;;;;0.00;0.00;;;8.80;99.90;;;;;;5086736;28;20126;-85
2023/01/12 07:07:05;;;;;;;0.00;0.00;;;8.90;99.90;;;;;;5086574;28;20036;-85
2023/01/12 07:09:31;;;;;;;0.00;0.00;;;8.90;99.90;;;;;;5090892;28;20044;-84
2023/01/12 07:11:56;;;;;;;0.00;0.00;;;8.90;99.90;;;;;;5090873;28;20479;-85
2023/01/12 07:14:22;;;;;;;0.00;0.00;;;8.90;99.90;;;;;;5090645;28;20079;-85
2023/01/12 07:16:47;;;;;;;0.00;0.00;;;8.90;99.90;;;;;;5090362;28;20040;-84
2023/01/12 07:19:13;;;;;;;0.00;0.00;;;9.00;99.90;;;;;;5091055;28;20044;-84
2023/01/12 07:21:39;;;;;;;0.00;0.00;;;9.00;99.90;;;;;;5091002;28;20032;-85
2023/01/12 07:24:05;;;;;;;0.00;0.00;;;9.00;99.90;;;;;;5090783;28;20052;-85
2023/01/12 07:26:30;;;;;;;0.00;0.00;;;9.00;99.90;;;;;;5090608;28;20403;-85
2023/01/12 07:28:56;;;;;;;0.17;0.17;;;9.10;99.90;;;;;;5090416;28;20043;-85
2023/01/12 07:31:22;;;;;;;0.00;0.00;;;9.10;99.90;;;;;;5091042;28;20040;-85
2023/01/12 07:33:51;;;;;;;0.00;0.00;;;9.10;99.90;;;;;;5089790;28;20453;-85
2023/01/12 07:36:17;;;;;;;0.00;0.00;;;9.20;99.90;;;;;;5091264;28;20047;-85
2023/01/12 07:38:43;;;;;;;0.00;0.00;;;9.20;99.90;;;;;;5091441;28;20491;-84
2023/01/12 07:42:22;;;;;;;0.00;0.00;;;9.30;99.90;;;;;;5092250;28;20040;-85
2023/01/12 07:43:55;;;;;;;0.00;0.00;;;10.10;99.90;;;;;;5092845;28;20052;-85
2023/01/12 07:46:20;;;;;;;0.00;0.00;;;9.20;99.90;;;;;;5093050;28;20133;-86
2023/01/12 07:48:46;;;;;;;0.85;0.38;;;9.30;99.90;;;;;;5092488;28;20040;-86
2023/01/12 07:51:12;;;;;;;0.00;0.00;;;9.20;99.90;;;;;;5093258;28;20040;-86
2023/01/12 07:53:37;;;;;;;0.00;0.00;;;9.30;99.90;;;;;;5092472;28;20044;-86
2023/01/12 07:56:03;;;;;;;0.00;0.00;;;9.30;99.90;;;;;;5093045;28;20044;-86
2023/01/12 07:58:29;;;;;;;0.00;0.00;;;9.90;99.90;;;;;;5093039;28;20491;-86
2023/01/12 08:00:59;;;;;;;2.47;1.17;;;9.40;99.90;;;;;;5093022;28;20087;-86
2023/01/12 08:03:24;;;;;;;0.00;0.00;;;9.40;99.90;;;;;;5092906;28;20047;-86
2023/01/12 08:05:50;;;;;;;0.00;0.00;;;10.60;99.90;;;;;;5092978;28;20055;-86
2023/01/12 08:08:15;;;;;;;0.00;0.00;;;9.50;99.90;;;;;;5092634;28;20062;-86
2023/01/12 08:10:42;;;;;;;0.52;0.35;;;9.60;99.90;;;;;;5092082;28;20052;-85
2023/01/12 08:13:08;;;;;;;0.70;0.35;;;9.60;99.90;;;;;;5093171;28;20047;-86
2023/01/12 08:15:40;;;;;;;0.00;0.00;;;9.70;99.90;;;;;;5108962;28;20123;-85
2023/01/12 08:18:19;;;;;;;0.00;0.00;;;9.90;99.90;;;;;;5106417;28;20402;-85
2023/01/12 08:20:45;;;;;;;0.00;0.00;;;9.90;99.90;;;;;;5094614;28;20124;-85
2023/01/12 08:23:22;;;;;;;0.20;0.15;;;9.90;99.90;;;;;;5093356;28;20080;-85
2023/01/12 08:25:55;;;;;;;0.10;0.10;;;10.00;99.90;;;;;;5093480;28;20052;-85
2023/01/12 08:28:30;;;;;;;3.25;0.85;;;10.10;99.90;;;;;;5093158;28;20484;-85
2023/01/12 08:30:56;;;;;;;12.18;1.40;;;10.20;99.90;;;;;;5093038;28;20044;-84
2023/01/12 08:33:22;;;;;;;0.10;0.10;;;10.20;99.90;;;;;;5092606;28;20052;-85
2023/01/12 08:35:48;;;;;;;1.02;0.68;;;11.30;99.90;;;;;;5093247;28;20119;-84
2023/01/12 08:38:14;;;;;;;0.00;0.00;;;10.20;99.90;;;;;;5093000;28;20135;-84
2023/01/12 08:46:15;;;;;;;0.00;0.00;;;10.40;99.90;;;;;;5079546;28;20043;-84
2023/01/12 08:48:41;;;;;;;10.32;2.00;;;10.40;99.90;;;;;;5096766;28;20509;-84
2023/01/12 08:51:07;;;;;;;3.92;1.17;;;10.40;99.90;;;;;;5096738;28;20504;-84
2023/01/12 08:53:33;;;;;;;0.30;0.30;;;10.40;99.90;;;;;;5096203;28;20040;-85
2023/01/12 08:55:59;;;;;;;0.00;0.00;;;10.40;99.90;;;;;;5096527;28;20040;-85
2023/01/12 08:58:25;;;;;;;0.00;0.00;;;10.40;99.90;;;;;;5096490;28;20454;-85
2023/01/12 09:00:50;;;;;;;4.82;1.55;;;10.40;99.90;;;;;;5094954;28;20051;-84
2023/01/12 09:03:16;;;;;;;1.08;1.00;;;10.40;99.90;;;;;;5095116;28;20074;-85
2023/01/12 09:05:43;;;;;;;1.35;0.80;;;10.40;99.90;;;;;;5096450;28;20050;-84
2023/01/12 09:08:08;;;;;;;6.18;1.50;;;10.50;99.90;;;;;;5096214;28;20071;-84
2023/01/12 09:10:34;;;;;;;0.00;0.00;;;10.50;99.90;;;;;;5096572;28;20483;-84
2023/01/12 09:12:59;;;;;;;7.47;1.10;;;10.50;99.90;;;;;;5096169;28;20376;-84
2023/01/12 09:15:25;;;;;;;0.40;0.30;;;10.50;99.90;;;;;;5095884;28;20113;-84
2023/01/12 09:17:54;;;;;;;6.20;1.77;;;10.60;99.90;;;;;;5095962;28;20051;-84
2023/01/12 09:20:20;;;;;;;0.25;0.25;;;10.70;99.90;;;;;;5096087;28;20032;-84
2023/01/12 09:22:46;;;;;;;1.42;1.33;;;10.70;99.90;;;;;;5095688;28;20093;-84
2023/01/12 09:25:12;;;;;;;1.65;1.38;;;10.70;99.90;;;;;;5096067;28;20048;-84
2023/01/12 09:27:38;;;;;;;0.17;0.17;;;10.70;99.90;;;;;;5095599;28;20048;-84
2023/01/12 09:30:05;;;;;;;1.33;0.55;;;10.70;99.90;;;;;;5095586;28;20115;-84
2023/01/12 09:32:31;;;;;;;1.23;0.70;;;10.70;99.90;;;;;;5095474;28;20487;-84
2023/01/12 09:34:58;;;;;;;0.00;0.00;;;10.70;99.90;;;;;;5095573;28;20048;-84
2023/01/12 09:37:24;;;;;;;4.53;2.33;;;10.60;99.90;;;;;;5095387;28;20052;-84
2023/01/12 09:39:50;;;;;;;0.17;0.15;;;10.70;99.90;;;;;;5095611;28;20119;-84
2023/01/12 09:48:08;;;;;;;0.60;0.55;;;10.70;99.90;;;;;;5095370;28;20079;-84
2023/01/12 09:50:37;;;;;;;0.38;0.38;;;10.90;99.90;;;;;;5095170;28;20080;-84
2023/01/12 09:53:22;;;;;;;0.22;0.20;;;10.90;99.90;;;;;;5094856;28;20044;-84
2023/01/12 09:56:04;;;;;;;0.00;0.00;;;10.70;99.90;;;;;;5095302;28;20127;-84
2023/01/12 09:58:45;;;;;;;0.00;0.00;;;10.90;99.90;;;;;;5094587;28;20071;-84
2023/01/12 10:01:12;;;;;;;0.82;0.47;;;11.20;99.90;;;;;;5095179;28;20046;-84
2023/01/12 10:03:41;;;;;;;0.20;0.17;;;10.70;99.90;;;;;;5095200;28;20059;-85
2023/01/12 10:06:14;;;;;;;0.22;0.22;;;10.80;99.90;;;;;;5095094;28;20120;-84
2023/01/12 10:08:53;;;;;;;0.82;0.28;;;10.90;99.90;;;;;;5095063;28;20109;-84
2023/01/12 10:12:05;;;;;;;0.00;0.00;;;10.90;99.90;;;;;;5094918;28;20067;-84
2023/01/12 10:15:01;;;;;;;0.52;0.52;;;10.90;99.90;;;;;;5066797;28;20415;-84
2023/01/12 10:17:44;;;;;;;0.38;0.22;;;10.90;99.90;;;;;;5094888;28;20040;-84
2023/01/12 10:20:16;;;;;;;0.30;0.30;;;10.90;99.90;;;;;;5094736;28;20048;-84
2023/01/12 10:23:08;;;;;;;0.00;0.00;;;10.90;99.90;;;;;;5094517;28;20047;-85
2023/01/12 10:25:41;;;;;;;0.43;0.43;;;11.00;99.90;;;;;;5094774;28;20098;-84
2023/01/12 10:28:16;;;;;;;1.73;1.27;;;10.90;99.90;;;;;;5094773;28;20051;-84
2023/01/12 10:30:42;;;;;;;0.10;0.10;;;11.00;99.90;;;;;;5094807;28;20044;-84
2023/01/12 10:33:20;;;;;;;0.80;0.32;;;11.00;99.90;;;;;;5094505;28;20072;-85
2023/01/12 10:35:56;;;;;;;1.30;1.20;;;11.50;99.90;;;;;;5094655;28;20059;-84
2023/01/12 10:38:33;;;;;;;0.00;0.00;;;11.00;99.90;;;;;;5094261;28;20040;-85
2023/01/12 10:41:13;;;;;;;2.90;0.22;;;11.10;99.90;;;;;;5094553;28;20459;-85
2023/01/12 10:43:40;;;;;;;0.00;0.00;;;11.00;99.90;;;;;;5094311;28;20051;-84
2023/01/12 10:46:12;;;;;;;1.30;0.90;;;11.00;99.90;;;;;;5094318;28;20040;-84
2023/01/12 10:48:42;;;;;;;0.25;0.25;;;11.00;99.90;;;;;;5094043;28;20071;-84
2023/01/12 10:51:28;;;;;;;2.38;1.13;;;11.00;99.90;;;;;;5094234;28;20115;-84
2023/01/12 10:53:55;;;;;;;2.65;1.65;;;11.00;99.90;;;;;;5094045;28;20051;-84
2023/01/12 10:56:34;;;;;;;0.00;0.00;;;11.00;99.90;;;;;;5094086;28;20044;-84
2023/01/12 10:59:18;;;;;;;0.00;0.00;;;11.90;99.90;;;;;;5094048;28;20047;-84
2023/01/12 11:01:46;;;;;;;0.08;0.08;;;11.00;99.90;;;;;;5094334;28;20368;-84
2023/01/12 11:04:17;;;;;;;4.60;1.42;;;11.10;99.90;;;;;;5093951;28;20047;-84
2023/01/12 11:06:53;;;;;;;0.40;0.40;;;11.10;99.90;;;;;;5093719;28;20407;-84
2023/01/12 11:09:28;;;;;;;0.20;0.20;;;11.10;99.90;;;;;;5092941;28;20048;-84
2023/01/12 11:11:59;;;;;;;0.08;0.08;;;11.10;99.90;;;;;;5093708;28;20040;-84
2023/01/12 11:14:35;;;;;;;0.00;0.00;;;11.10;99.90;;;;;;5094048;28;20040;-84
2023/01/12 11:17:31;;;;;;;0.00;0.00;;;11.10;99.90;;;;;;5093902;28;20084;-84
2023/01/12 11:19:59;;;;;;;0.25;0.25;;;11.00;99.90;;;;;;5093822;28;20089;-84
2023/01/12 11:22:30;;;;;;;9.35;2.10;;;11.10;99.90;;;;;;5093249;28;20483;-84
2023/01/12 11:25:24;;;;;;;0.00;0.00;;;11.20;99.90;;;;;;5092447;28;20048;-85
2023/01/12 11:28:35;;;;;;;0.80;0.55;;;11.20;99.90;;;;;;5084224;28;20094;-85
2023/01/12 11:31:24;;;;;;;0.20;0.20;;;11.20;99.90;;;;;;5086942;28;20502;-85
2023/01/12 11:34:08;;;;;;;0.30;0.22;;;11.30;99.90;;;;;;5090113;28;20125;-85
2023/01/12 11:36:41;;;;;;;12.50;1.13;;;11.30;99.90;;;;;;5090657;28;20048;-85
2023/01/12 11:39:14;;;;;;;0.17;0.17;;;11.40;99.90;;;;;;5090419;28;20513;-85
2023/01/12 11:43:47;;;;;;;0.85;0.55;;;11.40;99.90;;;;;;5090553;28;20046;-85
2023/01/12 11:44:40;;;;;;;0.32;0.28;;;11.50;99.90;;;;;;5090614;28;20056;-85
2023/01/12 11:47:12;;;;;;;0.38;0.35;;;11.50;99.90;;;;;;5090111;28;20507;-85
2023/01/12 11:49:56;;;;;;;27.90;1.20;;;11.60;99.90;;;;;;5090504;28;20048;-85
2023/01/12 11:52:24;;;;;;;2.72;1.65;;;11.60;99.90;;;;;;5089875;28;20040;-85
2023/01/12 11:54:49;;;;;;;0.00;0.00;;;11.70;99.90;;;;;;5090586;28;20047;-85
2023/01/12 11:57:40;;;;;;;1.33;0.47;;;11.70;99.90;;;;;;5090707;28;20399;-85
2023/01/12 12:00:21;;;;;;;1.38;0.90;;;11.80;99.90;;;;;;5090328;28;20115;-85
2023/01/12 12:03:29;;;;;;;0.20;0.10;;;11.90;99.90;;;;;;5085053;28;20439;-86
2023/01/12 12:06:35;;;;;;;0.00;0.00;;;12.10;1.00;;;;;;5088326;28;20040;-87
2023/01/12 12:09:28;;;;;;;0.03;0.03;;;12.20;1.00;;;;;;5070951;28;20440;-87
2023/01/12 12:12:06;;;;;;;1.30;0.98;;;12.10;99.90;;;;;;5068331;28;20492;-87
2023/01/12 12:14:51;;;;;;;1.08;0.70;;;12.20;1.00;;;;;;5087202;28;20048;-87
2023/01/12 12:17:33;;;;;;;0.13;0.13;;;12.10;56.30;;;;;;5088821;28;20123;-87
2023/01/12 12:20:23;;;;;;;2.95;1.00;;;12.10;87.70;;;;;;5089433;28;20052;-87
2023/01/12 12:23:05;;;;;;;5.15;1.38;;;12.20;99.90;;;;;;5092537;28;20044;-87
2023/01/12 12:25:45;;;;;;;0.20;0.10;;;12.10;26.50;;;;;;5092850;28;20075;-87
2023/01/12 12:28:35;;;;;;;0.08;0.08;;;12.10;1.00;;;;;;5092586;28;20047;-87
2023/01/12 12:31:20;;;;;;;0.38;0.30;;;12.10;99.90;;;;;;5093351;28;20055;-85
2023/01/12 12:34:10;;;;;;;0.00;0.00;;;12.10;99.90;;;;;;5092180;28;20084;-85
2023/01/12 12:36:49;;;;;;;3.55;1.45;;;12.00;36.10;;;;;;5092770;28;20052;-85
2023/01/12 12:39:17;;;;;;;7.45;1.58;;;12.00;97.90;;;;;;5092667;28;20044;-85
2023/01/12 12:48:02;;;;;;;0.00;0.00;;;11.60;99.90;;;;;;5092480;28;20052;-85
2023/01/12 12:50:56;;;;;;;3.83;0.80;;;11.60;99.90;;;;;;5092740;28;20056;-85
2023/01/12 12:53:24;;;;;;;0.10;0.10;;;11.60;99.90;;;;;;5092081;28;20130;-85
2023/01/12 12:55:52;;;;;;;0.80;0.75;;;11.80;99.90;;;;;;5091892;28;20058;-85
2023/01/12 12:58:20;;;;;;;4.80;1.00;;;11.80;99.90;;;;;;5092540;28;20052;-85
2023/01/12 13:00:46;;;;;;;0.00;0.00;;;11.80;99.90;;;;;;5092405;28;20047;-86
2023/01/12 13:03:40;;;;;;;1.85;0.35;;;11.90;99.90;;;;;;5092152;28;20420;-86
2023/01/12 13:06:16;;;;;;;0.75;0.75;;;11.80;99.90;;;;;;5092043;28;20048;-86
2023/01/12 13:08:44;;;;;;;0.00;0.00;;;11.90;99.90;;;;;;5091947;28;20173;-86
2023/01/12 13:11:09;;;;;;;1.10;0.75;;;11.80;99.90;;;;;;5092020;28;20046;-86
2023/01/12 13:13:37;;;;;;;0.52;0.52;;;11.70;99.90;;;;;;5091827;28;20406;-86
2023/01/12 13:16:18;;;;;;;0.45;0.45;;;11.70;99.90;;;;;;5090688;28;20396;-86
2023/01/12 13:18:49;;;;;;;0.00;0.00;;;11.80;99.90;;;;;;5091997;28;20055;-86
2023/01/12 13:21:55;;;;;;;0.20;0.20;;;11.80;99.90;;;;;;5092099;28;20497;-86
2023/01/12 13:24:40;;;;;;;0.00;0.00;;;11.80;99.90;;;;;;5091649;28;20481;-85
2023/01/12 13:27:43;;;;;;;0.45;0.32;;;11.80;99.90;;;;;;5091607;28;20059;-86
2023/01/12 13:30:23;;;;;;;0.17;0.17;;;11.80;99.90;;;;;;5091859;28;20044;-86
2023/01/12 13:32:58;;;;;;;0.63;0.63;;;13.10;99.90;;;;;;5090154;28;20047;-86
2023/01/12 13:35:33;;;;;;;0.45;0.43;;;11.80;99.90;;;;;;5091900;28;20055;-86
2023/01/12 13:38:17;;;;;;;0.10;0.10;;;11.80;99.90;;;;;;5091378;28;20276;-86
2023/01/12 13:40:43;;;;;;;1.38;0.88;;;11.80;99.90;;;;;;5091681;28;20048;-86
2023/01/12 13:43:24;;;;;;;1.20;0.80;;;11.80;99.90;;;;;;5091602;28;20051;-86
2023/01/12 13:46:02;;;;;;;0.50;0.45;;;11.80;99.90;;;;;;5091231;28;20036;-86
2023/01/12 13:48:28;;;;;;;0.25;0.25;;;12.10;99.90;;;;;;5091120;28;20075;-86
2023/01/12 13:51:15;;;;;;;0.30;0.30;;;11.80;99.90;;;;;;5091310;28;20165;-86
2023/01/12 13:53:41;;;;;;;3.35;1.52;;;11.80;99.90;;;;;;5079862;28;20078;-86
2023/01/12 13:56:17;;;;;;;20.38;1.02;;;11.70;99.90;;;;;;5091544;28;20467;-85
2023/01/12 13:58:43;;;;;;;0.22;0.22;;;11.70;99.90;;;;;;5092114;28;20104;-86
2023/01/12 14:01:30;;;;;;;2.40;1.40;;;11.60;99.90;;;;;;5094702;28;20540;-86
2023/01/12 14:04:02;;;;;;;19.60;3.75;;;11.60;99.90;;;;;;5094849;28;20522;-86